Time;durP1;ratioP1;P1;durP2;ratioP2;P2;SDS_P1;SDS_P2;PMS_P1;PMS_P2;Temp;Humidity;BMP_temperature;BMP_pressure;BME280_temperature;BME280_humidity;BME280_pressure;Samples;Min_cycle;Max_cycle;Signal;HPM_P1;HPM_P2
2021/06/16 00:02:03;;;;;;;18.60;14.80;;;;;;;;;;5054539;28;20021;-65
2021/06/16 00:04:29;;;;;;;18.98;15.77;;;;;;;;;;5052761;28;20440;-64
2021/06/16 00:06:55;;;;;;;22.08;15.07;;;;;;;;;;5054606;28;20032;-62
2021/06/16 00:09:22;;;;;;;19.58;15.45;;;;;;;;;;5053513;28;20033;-64
2021/06/16 00:11:48;;;;;;;18.45;15.30;;;;;;;;;;5054785;28;20430;-65
2021/06/16 00:14:14;;;;;;;20.25;15.57;;;;;;;;;;5053254;28;20078;-65
2021/06/16 00:16:41;;;;;;;23.60;15.18;;;;;;;;;;5053194;28;20021;-67
2021/06/16 00:19:07;;;;;;;17.70;14.97;;;;;;;;;;5053106;28;20021;-65
2021/06/16 00:21:33;;;;;;;20.73;15.52;;;17.90;99.90;;;;;;5053234;28;20025;-66
2021/06/16 00:23:59;;;;;;;19.70;15.70;;;17.20;99.90;;;;;;5054215;28;20027;-63
2021/06/16 00:26:25;;;;;;;21.48;15.13;;;17.10;99.90;;;;;;5053920;28;20021;-63
2021/06/16 00:28:51;;;;;;;18.58;14.35;;;17.10;99.90;;;;;;5036292;28;20144;-65
2021/06/16 00:31:16;;;;;;;22.35;14.80;;;17.10;99.90;;;;;;5054306;28;20025;-66
2021/06/16 00:33:42;;;;;;;24.45;15.63;;;17.10;99.90;;;;;;5054365;28;20047;-65
2021/06/16 00:36:07;;;;;;;17.95;15.18;;;17.00;99.90;;;;;;5053956;28;20083;-65
2021/06/16 00:38:33;;;;;;;21.05;15.40;;;17.00;99.90;;;;;;5036670;28;20492;-64
2021/06/16 00:40:59;;;;;;;23.08;15.57;;;17.00;99.90;;;;;;5054099;28;20021;-66
2021/06/16 00:43:25;;;;;;;18.92;15.10;;;17.00;99.90;;;;;;5054161;28;20017;-65
2021/06/16 00:45:51;;;;;;;19.65;15.15;;;16.90;99.90;;;;;;5053588;28;20531;-65
2021/06/16 00:48:17;;;;;;;23.55;15.65;;;16.90;99.90;;;;;;5053584;28;20583;-66
2021/06/16 00:50:44;;;;;;;21.00;15.25;;;16.80;99.90;;;;;;5035916;28;20049;-66
2021/06/16 00:53:10;;;;;;;21.52;15.32;;;16.80;99.90;;;;;;5053826;28;20477;-65
2021/06/16 00:55:40;;;;;;;21.83;14.63;;;16.70;99.90;;;;;;5053535;28;20029;-65
2021/06/16 00:58:07;;;;;;;22.75;15.40;;;16.70;99.90;;;;;;5053689;28;20017;-65
2021/06/16 01:00:56;;;;;;;21.73;15.57;;;16.70;99.90;;;;;;5053767;28;20092;-65
2021/06/16 01:03:28;;;;;;;19.80;14.07;;;16.60;99.90;;;;;;5053576;28;20435;-65
2021/06/16 01:06:29;;;;;;;21.30;14.20;;;16.70;99.90;;;;;;5053307;28;20510;-65
2021/06/16 01:09:03;;;;;;;21.17;14.50;;;16.60;99.90;;;;;;4972450;28;20061;-64
2021/06/16 01:11:31;;;;;;;22.58;15.07;;;16.60;99.90;;;;;;5041118;28;20060;-64
2021/06/16 01:14:08;;;;;;;23.25;14.57;;;16.60;99.90;;;;;;5035652;28;20511;-64
2021/06/16 01:16:34;;;;;;;19.67;14.55;;;16.60;99.90;;;;;;5053854;28;20021;-66
2021/06/16 01:19:07;;;;;;;19.92;14.73;;;16.60;99.90;;;;;;5052720;28;20029;-64
2021/06/16 01:21:39;;;;;;;19.20;14.35;;;16.50;99.90;;;;;;5053167;28;20100;-66
2021/06/16 01:24:13;;;;;;;18.77;14.60;;;16.50;99.90;;;;;;5053319;28;20017;-65
2021/06/16 01:26:48;;;;;;;21.33;14.98;;;16.50;99.90;;;;;;5053230;28;20028;-64
2021/06/16 01:29:28;;;;;;;21.58;14.35;;;16.40;99.90;;;;;;5053292;28;20025;-66
2021/06/16 01:31:54;;;;;;;21.40;14.45;;;16.40;99.90;;;;;;5053399;28;20496;-65
2021/06/16 01:34:22;;;;;;;19.65;14.02;;;16.30;99.90;;;;;;5035288;28;20036;-65
2021/06/16 01:36:50;;;;;;;21.43;14.37;;;16.30;99.90;;;;;;5053003;28;20017;-65
2021/06/16 01:39:20;;;;;;;21.88;14.98;;;16.30;99.90;;;;;;5035475;28;20025;-65
2021/06/16 01:41:47;;;;;;;19.58;14.27;;;16.30;99.90;;;;;;5053087;28;20025;-68
2021/06/16 01:44:14;;;;;;;18.38;13.65;;;16.30;99.90;;;;;;5052792;28;20021;-65
2021/06/16 01:46:43;;;;;;;18.85;14.10;;;16.30;99.90;;;;;;5035551;28;20083;-64
2021/06/16 01:49:10;;;;;;;18.23;13.60;;;16.30;99.90;;;;;;5053728;28;20078;-65
2021/06/16 01:51:37;;;;;;;19.17;13.80;;;16.30;99.90;;;;;;5053613;28;20017;-65
2021/06/16 01:54:03;;;;;;;20.55;14.07;;;16.20;99.90;;;;;;5053400;28;20083;-65
2021/06/16 01:56:32;;;;;;;20.80;14.05;;;16.20;99.90;;;;;;5035598;28;20017;-65
2021/06/16 01:58:58;;;;;;;;;;;16.20;99.90;;;;;;5053513;28;20021;-65
2021/06/16 02:01:25;;;;;;;20.95;13.68;;;16.10;99.90;;;;;;5034449;28;19976;-65
2021/06/16 02:03:52;;;;;;;21.13;14.57;;;16.20;99.90;;;;;;5052601;28;20484;-66
2021/06/16 02:06:19;;;;;;;20.73;14.55;;;16.10;99.90;;;;;;5050906;28;20033;-66
2021/06/16 02:08:48;;;;;;;18.23;13.80;;;16.10;99.90;;;;;;5052403;28;20036;-65
2021/06/16 02:11:19;;;;;;;25.50;15.10;;;16.10;99.90;;;;;;5052413;28;20039;-65
2021/06/16 02:13:55;;;;;;;22.73;14.70;;;16.10;99.90;;;;;;5052587;28;20408;-65
2021/06/16 02:16:48;;;;;;;21.60;15.48;;;16.10;99.90;;;;;;5052299;28;20086;-65
2021/06/16 02:19:17;;;;;;;22.48;15.50;;;16.10;99.90;;;;;;5051398;28;20074;-65
2021/06/16 02:21:44;;;;;;;20.13;14.60;;;16.00;99.90;;;;;;5052187;28;20071;-66
2021/06/16 02:24:12;;;;;;;24.45;14.40;;;16.00;99.90;;;;;;5034053;28;20366;-66
2021/06/16 02:26:37;;;;;;;21.27;14.13;;;16.00;99.90;;;;;;5052103;28;20389;-65
2021/06/16 02:29:09;;;;;;;19.67;15.02;;;15.90;99.90;;;;;;5052098;28;20025;-64
2021/06/16 02:31:35;;;;;;;22.60;14.00;;;15.90;99.90;;;;;;5052208;28;20021;-65
2021/06/16 02:34:02;;;;;;;21.05;14.70;;;15.90;99.90;;;;;;5051949;28;20017;-66
2021/06/16 02:36:32;;;;;;;22.52;14.32;;;15.80;99.90;;;;;;5034040;28;20071;-65
2021/06/16 02:39:00;;;;;;;19.95;14.40;;;15.90;99.90;;;;;;5052011;28;20108;-65
2021/06/16 02:41:26;;;;;;;22.77;14.25;;;15.80;99.90;;;;;;5052025;28;20021;-62
2021/06/16 02:43:54;;;;;;;22.65;14.77;;;15.80;99.90;;;;;;5034198;28;20388;-64
2021/06/16 02:46:21;;;;;;;21.60;14.10;;;15.80;99.90;;;;;;5051808;28;20021;-64
2021/06/16 02:48:50;;;;;;;19.58;13.80;;;15.80;99.90;;;;;;5034052;28;20044;-65
2021/06/16 02:51:19;;;;;;;19.83;13.10;;;15.80;99.90;;;;;;5052016;28;20101;-65
2021/06/16 02:53:46;;;;;;;24.75;14.40;;;15.80;99.90;;;;;;5052162;28;20021;-65
2021/06/16 02:56:14;;;;;;;24.60;14.45;;;15.70;99.90;;;;;;5033945;28;20402;-66
2021/06/16 02:58:43;;;;;;;20.17;14.57;;;15.70;99.90;;;;;;5033873;28;20025;-65
2021/06/16 03:01:13;;;;;;;20.23;14.00;;;15.70;99.90;;;;;;5051879;28;20039;-65
2021/06/16 03:03:40;;;;;;;21.15;14.20;;;15.70;99.90;;;;;;5034105;28;20435;-65
2021/06/16 03:06:07;;;;;;;20.17;13.75;;;15.80;99.90;;;;;;5051581;28;20029;-65
2021/06/16 03:08:33;;;;;;;20.48;14.30;;;15.70;99.90;;;;;;5051814;28;20036;-65
2021/06/16 03:11:01;;;;;;;25.88;15.23;;;15.70;99.90;;;;;;5051808;28;20056;-65
2021/06/16 03:13:28;;;;;;;22.30;13.93;;;15.60;99.90;;;;;;5055708;28;20389;-65
2021/06/16 03:15:54;;;;;;;21.42;14.23;;;15.60;99.90;;;;;;5055615;28;20636;-64
2021/06/16 03:18:22;;;;;;;21.95;13.68;;;15.60;99.90;;;;;;5037858;28;20485;-65
2021/06/16 03:20:49;;;;;;;27.37;14.00;;;15.60;99.90;;;;;;5054588;28;20461;-64
2021/06/16 03:23:15;;;;;;;22.23;13.35;;;15.60;99.90;;;;;;5038025;28;20272;-64
2021/06/16 03:25:43;;;;;;;19.38;13.75;;;15.60;99.90;;;;;;5037673;28;20025;-64
2021/06/16 03:28:09;;;;;;;18.02;13.60;;;15.60;99.90;;;;;;5055352;28;20096;-64
2021/06/16 03:30:36;;;;;;;19.30;13.50;;;15.70;99.90;;;;;;5055456;28;20056;-64
2021/06/16 03:33:02;;;;;;;18.25;13.13;;;15.70;99.90;;;;;;5055446;28;20365;-65
2021/06/16 03:35:28;;;;;;;21.80;13.20;;;15.70;99.90;;;;;;5054964;28;20029;-63
2021/06/16 03:37:55;;;;;;;20.08;13.25;;;15.70;99.90;;;;;;5037118;28;20032;-63
2021/06/16 03:40:24;;;;;;;24.30;14.25;;;15.70;99.90;;;;;;5055221;28;20104;-64
2021/06/16 03:42:50;;;;;;;20.52;13.05;;;15.70;99.90;;;;;;5037516;28;20029;-63
2021/06/16 03:45:17;;;;;;;21.42;13.68;;;15.70;99.90;;;;;;5037177;28;20025;-64
2021/06/16 03:47:46;;;;;;;21.50;13.55;;;15.70;99.90;;;;;;5037134;28;20120;-64
2021/06/16 03:50:15;;;;;;;20.20;13.55;;;15.80;99.90;;;;;;5037093;28;20512;-63
2021/06/16 03:52:42;;;;;;;23.50;14.05;;;15.90;99.90;;;;;;5055447;28;20123;-63
2021/06/16 03:55:09;;;;;;;22.70;13.63;;;15.90;99.90;;;;;;5036890;28;20400;-65
2021/06/16 03:57:37;;;;;;;23.60;14.40;;;15.90;99.90;;;;;;5054810;28;20044;-64
2021/06/16 04:00:04;;;;;;;19.45;13.25;;;15.90;99.90;;;;;;5054765;28;20100;-65
2021/06/16 04:02:30;;;;;;;22.05;13.50;;;15.90;99.90;;;;;;5054770;28;20017;-64
2021/06/16 04:05:00;;;;;;;22.20;14.20;;;16.00;99.90;;;;;;5054581;28;20456;-64
2021/06/16 04:07:25;;;;;;;25.58;14.60;;;16.00;99.90;;;;;;5054492;28;20028;-64
2021/06/16 04:09:53;;;;;;;20.17;13.93;;;16.10;99.90;;;;;;5054743;28;20485;-65
2021/06/16 04:12:19;;;;;;;21.60;14.82;;;16.10;99.90;;;;;;5036402;28;20127;-64
2021/06/16 04:14:47;;;;;;;19.90;14.23;;;16.20;99.90;;;;;;5036470;28;20112;-65
2021/06/16 04:17:15;;;;;;;23.80;14.20;;;16.30;99.90;;;;;;5036523;28;20025;-64
2021/06/16 04:19:40;;;;;;;23.40;14.18;;;16.30;99.90;;;;;;5036353;28;20024;-64
2021/06/16 04:22:06;;;;;;;20.13;14.55;;;16.40;99.90;;;;;;5054415;28;20017;-65
2021/06/16 04:24:31;;;;;;;24.10;14.63;;;16.40;99.90;;;;;;5053454;28;20118;-64
2021/06/16 04:26:57;;;;;;;21.60;15.30;;;16.50;99.90;;;;;;5054325;28;20150;-64
2021/06/16 04:29:23;;;;;;;19.92;14.30;;;16.50;99.90;;;;;;5054446;28;20485;-64
2021/06/16 04:31:49;;;;;;;21.50;14.98;;;16.50;99.90;;;;;;5036426;28;20601;-66
2021/06/16 04:34:15;;;;;;;22.50;15.18;;;16.60;99.90;;;;;;5036189;28;20381;-65
2021/06/16 04:36:41;;;;;;;23.30;14.35;;;16.60;99.90;;;;;;5054019;28;20032;-64
2021/06/16 04:39:06;;;;;;;18.75;13.82;;;16.60;99.90;;;;;;5036400;28;20120;-64
2021/06/16 04:41:32;;;;;;;24.58;15.13;;;16.70;99.90;;;;;;5053873;28;20059;-64
2021/06/16 04:43:57;;;;;;;22.35;14.80;;;16.70;99.90;;;;;;5053934;28;20431;-64
2021/06/16 04:46:26;;;;;;;23.10;14.73;;;16.80;99.90;;;;;;5053783;28;20036;-63
2021/06/16 04:48:52;;;;;;;;;;;16.90;99.90;;;;;;5054267;28;20041;-64
2021/06/16 04:51:17;;;;;;;21.27;14.57;;;17.00;99.90;;;;;;5053623;28;20287;-64
2021/06/16 04:53:43;;;;;;;21.92;14.60;;;17.10;99.90;;;;;;5053682;28;20497;-64
2021/06/16 04:56:08;;;;;;;20.95;14.82;;;17.10;99.90;;;;;;5035309;28;20075;-64
2021/06/16 04:58:34;;;;;;;22.13;15.50;;;17.10;99.90;;;;;;5053478;28;20093;-65
2021/06/16 05:01:00;;;;;;;23.00;15.27;;;17.30;99.90;;;;;;5053333;28;20028;-63
2021/06/16 05:03:26;;;;;;;23.83;15.63;;;17.30;99.90;;;;;;5053118;28;20017;-64
2021/06/16 05:05:51;;;;;;;22.83;15.27;;;17.40;99.90;;;;;;5053147;28;20036;-65
2021/06/16 05:08:17;;;;;;;22.27;15.75;;;17.40;99.90;;;;;;5053495;28;20029;-64
2021/06/16 05:10:43;;;;;;;21.27;15.05;;;17.40;99.90;;;;;;5052884;28;20024;-65
2021/06/16 05:13:09;;;;;;;19.05;14.65;;;;;;;;;;5053116;28;20033;-64
2021/06/16 05:15:35;;;;;;;20.30;15.55;;;;;;;;;;5053028;28;20025;-65
2021/06/16 05:18:03;;;;;;;21.52;15.15;;;;;;;;;;5052757;28;20025;-64
2021/06/16 05:20:29;;;;;;;23.50;15.80;;;17.50;99.90;;;;;;5053021;28;20096;-65
2021/06/16 05:22:58;;;;;;;24.58;15.35;;;17.70;99.90;;;;;;5034896;28;20118;-65
2021/06/16 05:25:24;;;;;;;25.65;16.73;;;17.80;99.90;;;;;;5052845;28;20027;-65
2021/06/16 05:27:49;;;;;;;20.23;14.57;;;17.80;99.90;;;;;;5052592;28;20103;-66
2021/06/16 05:30:18;;;;;;;22.42;15.50;;;17.90;99.90;;;;;;5052277;28;20023;-64
2021/06/16 05:32:43;;;;;;;23.55;15.48;;;18.00;99.90;;;;;;5052473;28;20400;-64
2021/06/16 05:35:09;;;;;;;22.48;15.65;;;18.00;99.90;;;;;;5051389;28;20116;-65
2021/06/16 05:37:35;;;;;;;22.67;16.02;;;18.10;99.90;;;;;;5052129;28;20017;-64
2021/06/16 05:40:01;;;;;;;21.35;15.90;;;18.10;99.90;;;;;;5050428;28;20045;-65
2021/06/16 05:42:27;;;;;;;20.80;15.73;;;18.10;99.90;;;;;;5052136;28;20040;-65
2021/06/16 05:44:52;;;;;;;20.73;15.13;;;18.20;99.90;;;;;;5053441;28;20041;-64
2021/06/16 05:47:18;;;;;;;22.23;15.88;;;18.20;99.90;;;;;;5032038;28;20033;-64
2021/06/16 05:49:43;;;;;;;21.10;15.88;;;18.30;99.90;;;;;;5051069;28;20033;-64
2021/06/16 05:52:09;;;;;;;22.20;16.23;;;18.30;99.90;;;;;;5053119;28;20392;-64
2021/06/16 05:54:41;;;;;;;19.45;16.20;;;18.40;99.90;;;;;;5050360;28;20032;-64
2021/06/16 05:57:07;;;;;;;23.80;16.13;;;18.40;99.90;;;;;;5050887;28;20104;-64
2021/06/16 05:59:35;;;;;;;21.05;15.82;;;18.50;99.90;;;;;;5052219;28;20114;-65
2021/06/16 06:02:01;;;;;;;;;;;18.50;99.90;;;;;;5052501;28;20021;-64
2021/06/16 06:04:27;;;;;;;23.70;16.45;;;18.60;99.90;;;;;;5051533;28;19911;-65
2021/06/16 06:06:52;;;;;;;22.88;16.27;;;18.60;99.90;;;;;;5051765;28;20053;-63
2021/06/16 06:09:18;;;;;;;21.17;16.27;;;18.50;99.90;;;;;;5052174;28;20048;-64
2021/06/16 06:11:44;;;;;;;21.77;15.05;;;;;;;;;;5051863;28;20021;-64
2021/06/16 06:14:10;;;;;;;22.10;15.63;;;;;;;;;;5051605;28;20013;-63
2021/06/16 06:16:36;;;;;;;21.70;15.52;;;;;;;;;;5052228;28;20022;-64
2021/06/16 06:19:03;;;;;;;19.90;15.52;;;;;;;;;;5053421;28;20049;-63
2021/06/16 06:21:32;;;;;;;19.33;15.50;;;;;;;;;;5052035;28;20048;-64
2021/06/16 06:24:02;;;;;;;20.65;16.50;;;;;;;;;;5051520;28;20453;-63
2021/06/16 06:26:28;;;;;;;21.05;16.35;;;;;;;;;;5049645;28;20025;-64
2021/06/16 06:28:55;;;;;;;22.65;15.93;;;;;;;;;;5050560;28;20032;-62
2021/06/16 06:31:21;;;;;;;22.35;16.02;;;;;;;;;;5051456;28;20100;-64
2021/06/16 06:33:47;;;;;;;21.13;16.40;;;;;;;;;;5051446;28;20147;-64
2021/06/16 06:36:13;;;;;;;19.88;15.90;;;;;;;;;;5051281;28;20025;-64
2021/06/16 06:38:39;;;;;;;21.17;16.05;;;;;;;;;;5051493;28;20403;-64
2021/06/16 06:41:05;;;;;;;21.63;16.23;;;;;;;;;;5051475;28;20029;-64
2021/06/16 06:43:31;;;;;;;21.13;16.80;;;;;;;;;;5033638;28;20075;-63
2021/06/16 06:45:57;;;;;;;21.83;16.48;;;;;;;;;;5051122;28;20489;-64
2021/06/16 06:48:23;;;;;;;21.65;16.92;;;;;;;;;;5033528;28;20032;-62
2021/06/16 06:50:49;;;;;;;20.63;16.52;;;;;;;;;;5051387;28;20378;-63
2021/06/16 06:53:17;;;;;;;19.50;16.10;;;;;;;;;;5051399;28;20052;-62
2021/06/16 06:55:43;;;;;;;21.92;15.93;;;;;;;;;;5052856;28;20663;-62
2021/06/16 06:58:09;;;;;;;23.30;16.27;;;;;;;;;;5033901;28;20033;-65
2021/06/16 07:00:35;;;;;;;18.58;16.05;;;;;;;;;;5051665;28;20025;-64
2021/06/16 07:03:01;;;;;;;20.45;15.70;;;;;;;;;;5051640;28;20199;-64
2021/06/16 07:05:27;;;;;;;20.02;15.80;;;;;;;;;;5051503;28;20488;-63
2021/06/16 07:07:54;;;;;;;22.52;16.33;;;;;;;;;;5051530;28;20055;-64
2021/06/16 07:10:20;;;;;;;18.70;16.05;;;;;;;;;;5051190;28;20033;-63
2021/06/16 07:12:46;;;;;;;21.60;16.35;;;;;;;;;;5033805;28;20416;-65
2021/06/16 07:15:12;;;;;;;19.33;15.93;;;;;;;;;;5033526;28;20033;-64
2021/06/16 07:17:38;;;;;;;19.65;16.25;;;;;;;;;;5051785;28;20443;-64
2021/06/16 07:20:05;;;;;;;20.67;16.60;;;;;;;;;;5051311;28;20025;-64
2021/06/16 07:22:31;;;;;;;19.05;15.88;;;;;;;;;;5051555;28;20072;-62
2021/06/16 07:24:57;;;;;;;19.70;16.05;;;;;;;;;;5051030;28;20169;-61
2021/06/16 07:27:24;;;;;;;19.30;16.05;;;;;;;;;;5051092;28;20124;-63
2021/06/16 07:29:49;;;;;;;21.40;16.70;;;;;;;;;;5051193;28;20036;-63
2021/06/16 07:32:19;;;;;;;19.38;16.00;;;;;;;;;;5051647;28;20025;-64
2021/06/16 07:34:45;;;;;;;24.98;16.65;;;;;;;;;;5051164;28;20035;-65
2021/06/16 07:37:12;;;;;;;20.20;15.75;;;;;;;;;;5051454;28;20099;-63
2021/06/16 07:39:38;;;;;;;20.45;16.17;;;;;;;;;;5051395;28;20048;-64
2021/06/16 07:42:05;;;;;;;19.95;16.35;;;;;;;;;;5051136;28;20021;-61
2021/06/16 07:44:31;;;;;;;20.33;16.85;;;;;;;;;;5033526;28;20025;-63
2021/06/16 07:46:57;;;;;;;22.52;16.92;;;;;;;;;;5051073;28;20517;-65
2021/06/16 07:49:24;;;;;;;22.25;17.15;;;;;;;;;;5033558;28;20053;-64
2021/06/16 07:51:50;;;;;;;22.20;17.02;;;;;;;;;;5051865;28;20170;-63
2021/06/16 07:54:16;;;;;;;22.08;16.65;;;;;;;;;;5051165;28;20104;-62
2021/06/16 07:56:43;;;;;;;21.70;16.83;;;;;;;;;;5051189;28;20100;-62
2021/06/16 07:59:09;;;;;;;19.52;16.73;;;;;;;;;;5053182;28;20021;-63
2021/06/16 08:01:35;;;;;;;21.40;17.20;;;;;;;;;;5054616;28;20111;-62
2021/06/16 08:04:01;;;;;;;25.50;17.80;;;;;;;;;;5055816;28;20028;-68
2021/06/16 08:06:27;;;;;;;19.85;17.10;;;;;;;;;;5039296;28;20029;-66
2021/06/16 08:08:53;;;;;;;20.17;17.05;;;;;;;;;;5039608;28;20025;-64
2021/06/16 08:11:21;;;;;;;23.23;17.63;;;;;;;;;;5055421;28;20029;-64
2021/06/16 08:13:47;;;;;;;19.35;16.77;;;;;;;;;;5055032;28;20029;-62
2021/06/16 08:16:14;;;;;;;20.98;17.60;;;;;;;;;;5054519;28;20141;-61
2021/06/16 08:18:40;;;;;;;23.67;17.55;;;;;;;;;;5055102;28;20021;-61
2021/06/16 08:21:06;;;;;;;24.38;17.63;;;;;;;;;;5054801;28;20025;-64
2021/06/16 08:23:32;;;;;;;22.02;16.60;;;;;;;;;;5054654;28;20527;-61
2021/06/16 08:25:58;;;;;;;19.13;16.65;;;;;;;;;;5054497;28;20029;-61
2021/06/16 08:28:24;;;;;;;22.40;17.08;;;;;;;;;;5054671;28;20033;-61
2021/06/16 08:30:50;;;;;;;22.77;17.75;;;;;;;;;;5036956;28;20051;-61
2021/06/16 08:33:16;;;;;;;21.77;17.10;;;;;;;;;;5053959;28;20357;-62
2021/06/16 08:35:42;;;;;;;22.05;17.63;;;;;;;;;;5054300;28;20021;-61
2021/06/16 08:38:08;;;;;;;21.85;17.42;;;;;;;;;;5054484;28;20087;-63
2021/06/16 08:40:34;;;;;;;21.90;18.15;;;;;;;;;;5036517;28;20468;-62
2021/06/16 08:43:00;;;;;;;20.65;17.67;;;;;;;;;;5054263;28;20060;-62
2021/06/16 08:45:27;;;;;;;22.52;18.15;;;;;;;;;;5053834;28;20477;-62
2021/06/16 08:47:53;;;;;;;20.05;17.48;;;;;;;;;;5053808;28;20558;-63
2021/06/16 08:50:19;;;;;;;21.30;17.75;;;;;;;;;;5054228;28;20147;-62
2021/06/16 08:52:46;;;;;;;22.00;17.70;;;;;;;;;;5053810;28;20043;-63
2021/06/16 08:55:14;;;;;;;21.40;18.25;;;;;;;;;;5053585;28;20028;-65
2021/06/16 08:57:40;;;;;;;21.77;19.00;;;18.70;99.90;;;;;;5053855;28;20032;-63
2021/06/16 09:00:09;;;;;;;22.75;18.92;;;24.60;99.90;;;;;;5053851;28;20017;-62
2021/06/16 09:02:35;;;;;;;21.60;19.23;;;24.70;99.90;;;;;;5053789;28;20032;-62
2021/06/16 09:05:00;;;;;;;23.38;19.30;;;24.80;99.90;;;;;;5053078;28;20025;-63
2021/06/16 09:07:30;;;;;;;21.63;19.15;;;24.90;99.90;;;;;;5052768;28;20025;-63
2021/06/16 09:10:12;;;;;;;21.67;18.85;;;25.00;99.90;;;;;;5052584;28;20104;-64
2021/06/16 09:12:44;;;;;;;22.27;18.35;;;25.10;99.90;;;;;;5050863;28;20029;-63
2021/06/16 09:15:13;;;;;;;23.27;19.17;;;25.20;99.90;;;;;;5052173;28;20082;-63
2021/06/16 09:17:39;;;;;;;21.67;18.88;;;25.30;99.90;;;;;;5052062;28;20025;-61
2021/06/16 09:20:06;;;;;;;21.58;19.08;;;25.30;99.90;;;;;;5052413;28;20032;-63
2021/06/16 09:22:34;;;;;;;22.92;18.75;;;25.30;99.90;;;;;;5051500;28;20033;-55
2021/06/16 09:25:06;;;;;;;20.17;18.05;;;25.50;99.90;;;;;;5052336;28;20025;-53
2021/06/16 09:27:48;;;;;;;21.95;18.95;;;;;;;;;;5052876;28;20021;-58
2021/06/16 09:30:21;;;;;;;22.80;18.92;;;25.70;99.90;;;;;;5051381;28;20025;-57
2021/06/16 09:32:48;;;;;;;25.80;18.70;;;25.90;99.90;;;;;;5052390;28;20029;-59
2021/06/16 09:35:19;;;;;;;22.58;19.02;;;26.10;99.90;;;;;;5051906;28;20158;-59
2021/06/16 09:37:45;;;;;;;22.35;19.65;;;26.10;99.90;;;;;;5052422;28;20435;-61
2021/06/16 09:40:11;;;;;;;21.45;18.90;;;26.30;99.90;;;;;;5051238;28;20048;-60
2021/06/16 09:42:37;;;;;;;21.63;19.27;;;26.20;99.90;;;;;;5034080;28;20021;-60
2021/06/16 09:45:03;;;;;;;24.77;18.38;;;26.00;99.90;;;;;;5051971;28;20477;-61
2021/06/16 09:47:29;;;;;;;21.27;18.98;;;26.10;99.90;;;;;;5051505;28;20037;-61
2021/06/16 09:49:59;;;;;;;25.30;19.33;;;26.20;99.90;;;;;;5051956;28;20095;-64
2021/06/16 09:52:47;;;;;;;21.40;19.13;;;26.60;99.90;;;;;;5051606;28;20032;-63
2021/06/16 09:55:12;;;;;;;23.38;19.10;;;26.70;99.90;;;;;;5034297;28;20025;-62
2021/06/16 09:57:57;;;;;;;20.95;18.85;;;26.80;99.80;;;;;;5050365;28;20021;-63
2021/06/16 10:00:38;;;;;;;22.20;19.23;;;26.90;99.90;;;;;;5050873;28;20021;-62
2021/06/16 10:03:21;;;;;;;21.70;19.00;;;27.20;99.90;;;;;;5051599;28;20028;-63
2021/06/16 10:06:05;;;;;;;22.05;19.65;;;27.00;99.80;;;;;;5051739;28;20040;-64
2021/06/16 10:08:33;;;;;;;21.85;19.58;;;27.30;99.70;;;;;;5051615;28;20086;-64
2021/06/16 10:11:01;;;;;;;22.73;19.02;;;27.20;99.80;;;;;;5033479;28;20611;-64
2021/06/16 10:13:28;;;;;;;21.27;19.08;;;27.30;99.90;;;;;;5051621;28;20033;-62
2021/06/16 10:15:55;;;;;;;22.23;19.10;;;27.50;99.10;;;;;;5051492;28;20374;-63
2021/06/16 10:18:22;;;;;;;23.00;18.77;;;27.40;99.00;;;;;;5050203;28;20120;-63
2021/06/16 10:20:50;;;;;;;21.33;19.05;;;27.70;99.60;;;;;;5050099;28;20267;-63
2021/06/16 10:23:16;;;;;;;22.42;19.20;;;28.00;98.60;;;;;;5051493;28;20025;-63
2021/06/16 10:25:41;;;;;;;21.05;18.65;;;27.70;97.90;;;;;;5051632;28;20103;-63
2021/06/16 10:28:08;;;;;;;25.23;20.52;;;27.90;98.60;;;;;;5051324;28;20115;-63
2021/06/16 10:30:40;;;;;;;22.65;20.13;;;27.50;98.60;;;;;;5033535;28;20029;-63
2021/06/16 10:33:32;;;;;;;21.30;18.98;;;27.90;98.50;;;;;;5051507;28;20129;-63
2021/06/16 10:36:32;;;;;;;22.02;19.55;;;28.10;98.20;;;;;;5050944;28;20150;-64
2021/06/16 10:38:57;;;;;;;21.27;19.05;;;28.20;98.70;;;;;;5007668;28;20025;-64
2021/06/16 10:41:38;;;;;;;22.48;19.30;;;28.30;98.40;;;;;;5050820;28;20070;-64
2021/06/16 10:44:21;;;;;;;21.42;19.20;;;28.60;97.50;;;;;;5050894;28;20032;-63
2021/06/16 10:46:55;;;;;;;25.92;18.38;;;28.30;97.80;;;;;;5050831;28;20020;-64
2021/06/16 10:49:36;;;;;;;20.88;18.23;;;28.70;98.00;;;;;;5050823;28;20021;-64
2021/06/16 10:52:03;;;;;;;20.73;18.45;;;28.90;98.30;;;;;;5051214;28;20052;-63
2021/06/16 10:54:30;;;;;;;21.35;19.00;;;29.10;98.20;;;;;;5050484;28;20438;-62
2021/06/16 10:57:05;;;;;;;21.20;19.05;;;;;;;;;;5050946;28;20087;-64
2021/06/16 10:59:44;;;;;;;21.40;19.20;;;;;;;;;;5051103;28;20033;-64
2021/06/16 11:02:10;;;;;;;22.15;18.75;;;;;;;;;;5033323;28;20376;-64
2021/06/16 11:04:39;;;;;;;21.33;19.02;;;;;;;;;;5050909;28;20075;-63
2021/06/16 11:07:24;;;;;;;20.92;18.73;;;;;;;;;;5051218;28;20079;-64
2021/06/16 11:10:07;;;;;;;21.92;19.70;;;;;;;;;;5051129;28;20053;-64
2021/06/16 11:12:33;;;;;;;22.35;20.10;;;;;;;;;;5050794;28;20043;-64
2021/06/16 11:15:00;;;;;;;22.05;19.25;;;;;;;;;;5049973;28;20540;-64
2021/06/16 11:17:29;;;;;;;22.00;19.30;;;;;;;;;;5050597;28;20040;-64
2021/06/16 11:19:59;;;;;;;22.17;19.30;;;;;;;;;;5050945;28;20025;-62
2021/06/16 11:22:25;;;;;;;22.10;19.80;;;;;;;;;;5051327;28;20021;-63
2021/06/16 11:25:00;;;;;;;22.42;20.05;;;;;;;;;;5050551;28;20079;-64
2021/06/16 11:27:56;;;;;;;23.48;19.25;;;29.20;97.80;;;;;;5050463;28;20172;-64
2021/06/16 11:30:29;;;;;;;21.73;19.52;;;33.50;93.80;;;;;;5050675;28;20032;-64
2021/06/16 11:33:13;;;;;;;22.48;20.08;;;34.10;92.10;;;;;;5032941;28;20445;-64
2021/06/16 11:35:59;;;;;;;22.17;19.83;;;33.10;91.30;;;;;;5054087;28;20028;-64
2021/06/16 11:38:43;;;;;;;21.88;19.65;;;33.80;91.40;;;;;;5054466;28;20481;-63
2021/06/16 11:41:18;;;;;;;22.10;19.90;;;34.30;91.50;;;;;;5036452;28;20334;-63
2021/06/16 11:43:48;;;;;;;22.58;20.17;;;35.30;90.00;;;;;;5054577;28;20100;-63
2021/06/16 11:46:30;;;;;;;23.83;20.55;;;35.90;89.10;;;;;;5053854;28;20028;-63
2021/06/16 11:49:08;;;;;;;23.95;19.90;;;36.50;87.40;;;;;;5053055;28;20254;-63
2021/06/16 11:51:36;;;;;;;28.08;19.95;;;;;;;;;;5075354;22;20687;-64
2021/06/16 11:54:25;;;;;;;22.83;20.52;;;;;;;;;;5074216;28;20024;-64
2021/06/16 11:56:50;;;;;;;25.05;20.67;;;;;;;;;;5074172;28;20039;-64
2021/06/16 11:59:29;;;;;;;22.92;20.52;;;;;;;;;;5073349;28;20115;-63
2021/06/16 12:02:05;;;;;;;23.65;20.80;;;;;;;;;;5084216;28;20516;-63
2021/06/16 12:05:04;;;;;;;22.33;19.95;;;;;;;;;;5076109;28;20020;-64
2021/06/16 12:07:32;;;;;;;23.27;20.88;;;;;;;;;;5040150;28;20028;-64
2021/06/16 12:10:05;;;;;;;22.80;20.63;;;;;;;;;;5094481;28;20035;-63
2021/06/16 12:12:52;;;;;;;23.85;21.25;;;;;;;;;;5076278;28;20052;-64
2021/06/16 12:15:19;;;;;;;23.25;20.88;;;;;;;;;;5095116;28;20503;-64
2021/06/16 12:18:10;;;;;;;22.33;20.02;;;36.40;87.00;;;;;;5094358;28;20048;-65
2021/06/16 12:20:50;;;;;;;23.20;20.80;;;36.20;79.30;;;;;;5094526;28;20023;-65
2021/06/16 12:23:33;;;;;;;22.80;20.50;;;;;;;;;;5094472;28;20506;-65
2021/06/16 12:26:06;;;;;;;22.55;20.25;;;;;;;;;;5094427;28;20035;-65
2021/06/16 12:28:35;;;;;;;23.33;20.83;;;37.00;76.40;;;;;;5075918;28;20024;-65
2021/06/16 12:31:01;;;;;;;22.77;20.38;;;38.10;73.60;;;;;;5094400;28;20129;-65
2021/06/16 12:33:50;;;;;;;23.85;21.38;;;;;;;;;;5076316;28;20032;-63
2021/06/16 12:36:22;;;;;;;22.98;20.17;;;38.80;74.30;;;;;;5094002;28;20021;-65
2021/06/16 12:38:50;;;;;;;22.88;20.35;;;;;;;;;;5076164;28;20024;-65
2021/06/16 12:41:36;;;;;;;23.80;21.23;;;;;;;;;;5094154;28;20013;-65
2021/06/16 12:44:12;;;;;;;22.75;20.48;;;;;;;;;;5075326;28;20035;-65
2021/06/16 12:46:53;;;;;;;24.13;21.63;;;;;;;;;;5093628;28;20031;-63
2021/06/16 12:49:20;;;;;;;23.08;20.83;;;;;;;;;;5075234;28;20020;-64
2021/06/16 12:51:47;;;;;;;23.88;21.38;;;;;;;;;;5093510;28;20023;-64
2021/06/16 12:54:22;;;;;;;23.23;20.98;;;;;;;;;;5093384;28;20137;-62
2021/06/16 12:57:04;;;;;;;23.20;20.75;;;38.70;70.30;;;;;;5094144;28;20031;-64
2021/06/16 12:59:49;;;;;;;22.95;20.65;;;38.60;69.50;;;;;;5093661;28;20044;-63
2021/06/16 13:02:32;;;;;;;23.58;21.38;;;39.80;67.90;;;;;;5092621;28;20055;-65
2021/06/16 13:04:58;;;;;;;24.60;21.75;;;40.50;67.20;;;;;;5092876;28;20161;-65
2021/06/16 13:07:43;;;;;;;23.88;21.33;;;40.10;66.00;;;;;;5093384;28;20107;-62
2021/06/16 13:10:15;;;;;;;24.15;21.75;;;39.70;68.20;;;;;;5093416;28;20023;-65
2021/06/16 13:12:54;;;;;;;24.23;20.52;;;37.80;65.80;;;;;;5093163;28;20392;-64
2021/06/16 13:15:20;;;;;;;24.10;21.70;;;37.00;67.00;;;;;;5074884;28;20024;-65